00h06 EDT


 

Suivi/Infos de l'aéroport


-ou-


 

Suivi des vols en temps réelNetjets Aviation #982 ✈ 02-05-2013 ✈ KBFI - KSEA

Thumbnail
EJA982
Netjets Aviation "Execjet" (tous les vols) · Columbus, OH
Boeing-Comté de King ( – info)
Seattle, WA
Int'l de Seattle-Tacoma ( – info)
Seattle, WA
22h00 PDT
22h05 PDT
Prévu: 22h09 PDT
Prévu: 22h17 PDT
Durée: 5 minutes
jeudi, 2 mai 2013
Statut A atterri il y a plus d'un an. (journal de vol & graphique)
Avion Cessna Citation X (biréacteur) (C750/Q – photos)
Vitesse Plan de vol: 404 kts (graphique)
Altitude Plan de vol: 10.000 Pieds (graphique)
Distance En ligne droite 9 km
Route TCM (Décoder)
JOURNAL DE L'ACTIVITE
Vous voulez une recherche complète sur l'historique de EJA982 depuis 1998? Achetez maintenant. Recevez-le dans l'heure.
Date Avion Provenance Destination Départ Arrivée Durée
24-07-2014 C750/LInt'l Newark Liberty ()Teterboro () 17h03 EDT 17h12 EDT 0:09
24-07-2014 C750/LGreenville Downtown ()Int'l Newark Liberty () 14h21 EDT 15h47 EDT 1:26
24-07-2014 C750/LCharleston Afb/Intl ()Greenville Downtown () 13h26 EDT 14h02 EDT 0:36
24-07-2014 C750/LTeterboro ()Charleston Afb/Intl () 10h58 EDT 12h37 EDT 1:39
24-07-2014 C750/LOakland County Intl ()Teterboro () 07h19 EDT 08h25 EDT 1:06
23-07-2014 C750/LTrenton Mercer ()Oakland County Intl () 09h04 EDT 10h14 EDT 1:10
23-07-2014 C750/LHancock County-Bar Harbor ()Trenton Mercer () 07h10 EDT 08h17 EDT 1:07
21-07-2014 C750/LInt'l Logan ()Hancock County-Bar Harbor () 15h19 EDT 15h52 EDT 0:32
21-07-2014 C750/LNantucket Memorial ()Int'l Logan () 13h45 EDT 14h13 EDT 0:28
21-07-2014 C750/LInt'l Newark Liberty ()Nantucket Memorial () 11h59 EDT 12h36 EDT 0:37
21-07-2014 C750/LMuskoka ()Int'l Newark Liberty () 09h42 EDT 10h40 EDT 0:57
21-07-2014 C750/LWestchester County ()Muskoka () 08h07 EDT 09h06 EDT 0:59
20-07-2014 C750Nantucket Memorial ()Westchester County () 19h38 EDT 20h21 EDT 0:43
20-07-2014 C750/LWestchester County ()Nantucket Memorial () 17h00 EDT 17h51 EDT (?) 0:51
20-07-2014 C750/LNantucket Memorial ()Westchester County () 14h42 EDT 15h25 EDT 0:43
19-07-2014 C750/LAsheville Rgnl ()Nantucket Memorial () 13h06 EDT 15h03 EDT 1:57
19-07-2014 C750/LPiedmont Triad Intl ()Asheville Rgnl () 10h54 EDT 11h25 EDT 0:31
18-07-2014 C750/LFrench Valley ()Piedmont Triad Intl () 08h27 PDT 15h10 EDT 3:43
18-07-2014 C750/LBob Hope ()French Valley () 06h22 PDT 06h43 PDT 0:21
17-07-2014 C750/LInt'l de San José ()Bob Hope () 15h00 PDT 15h46 PDT 0:46
17-07-2014 C750/LNapa County ()Int'l de San José () 12h40 PDT 13h08 PDT 0:28
17-07-2014 C750/LAddison ()Napa County () 10h28 CDT 11h39 PDT 3:11
17-07-2014 C750/LJack Brooks Rgnl ()Addison () 08h06 CDT 09h12 CDT 1:06
16-07-2014 C750/LSmith Reynolds ()Jack Brooks Rgnl () 17h10 EDT 18h09 CDT 1:59
16-07-2014 C750/LInt'l General Mitchell de Milwaukee ()Smith Reynolds () 13h40 CDT 15h55 EDT 1:15
16-07-2014 C750/LSmith Reynolds ()Int'l General Mitchell de Milwaukee () 07h44 EDT 08h04 CDT 1:20
16-07-2014 C750/LInt'l de Washington-Dulles ()Smith Reynolds () 06h42 EDT 07h23 EDT 0:41
15-07-2014 C750/LWilmington Intl ()Int'l de Washington-Dulles () 20h54 EDT 21h53 EDT 0:59
15-07-2014 C750/LBermuda Int'l ()Wilmington Intl () 17h24 ADT 19h30 EDT 3:06
15-07-2014 C750/LBermuda Int'l ()Int'l Newark Liberty () 17h24 ADT Dérouté
14-07-2014 C750/LTeterboro ()Bermuda Int'l () 23h54 EDT 02h26 ADT (+1) 1:32
14-07-2014 C750/LInt'l Midway de Chicago ()Teterboro () 20h14 CDT 22h38 EDT 1:24
14-07-2014 C750/LInt'l de Louisville ()Int'l Midway de Chicago () 17h45 EDT 17h45 CDT 0:59
14-07-2014 C750/LTeterboro ()Int'l de Louisville () 14h23 EDT 15h52 EDT 1:29
14-07-2014 C750/LButler County ()Teterboro () 12h30 EDT 13h26 EDT 0:56
14-07-2014 C750/LInt'l de Cleveland-Hopkins ()Butler County () 10h55 EDT 11h25 EDT 0:30
14-07-2014 C750/LWindsor ()Int'l de Cleveland-Hopkins () 10h02 EDT 10h24 EDT 0:22
14-07-2014 C750/LCincinnati Muni ()Windsor () 07h35 EDT 08h10 EDT 0:35
13-07-2014 C750/LPellston Rgnl ()Cincinnati Muni () 15h15 EDT 16h15 EDT 1:00
13-07-2014 C750/LSpirit of St Louis ()Pellston Rgnl () 12h27 CDT 14h34 EDT 1:07
13-07-2014 C750/LCincinnati Muni ()Spirit of St Louis () 11h45 EDT 11h42 CDT 0:57
13-07-2014 C750/LToledo Express ()Cincinnati Muni () 09h59 EDT 10h33 EDT 0:34
Les membres inscrits (l'inscription est gratuite et facile!) voient 4 months d'historique. S'inscrire